16°C
Woerden, The Nederlands
Taal:  Nederlands
Updated31/07/2021 08:50 
 

Nearby METAR Reports

EHAM - Amsterdam/Schiph, Netherlands
Distance from station: N 27km
Updated: 31/07/2021 08:25
Lichte regen, Showers, Few clouds
Lichte regen, Showers, Few clouds
 Wind van W
Wind: W 31 km/h
Temperatuur: 16°C
Dauwpunt: 14°C
Vochtigheid: 88%
Barometer: 1004 hPa
Overzicht: Lichte regen, Showers
Clouds: Few Clouds
Visibility: 10 km
Cloud details: Few Clouds 335 m
Gedeeltelijk bewolkt 518 m
Few Clouds 610 m
2021/07/31 06:25 EHAM 310625Z 26017KT 9999 -SHRA FEW011 SCT017 FEW020CB 16/14 Q1004 TEMPO 5000 SHRA
EHRD - Rotterdam Airpor, Netherlands
Distance from station: WZW 30km
Updated: 31/07/2021 08:25
Meestal bewolkt
Meestal bewolkt
 Wind van WZW
Wind: WZW 22 km/h
Temperatuur: 16°C
Dauwpunt: 14°C
Vochtigheid: 88%
Barometer: 1005 hPa
Clouds: Meestal bewolkt
Visibility: 10 km
Cloud details: Few Clouds 488 m
Gedeeltelijk bewolkt 701 m
Meestal bewolkt 823 m
2021/07/31 06:25 EHRD 310625Z AUTO 25012KT 220V280 9999 FEW016 SCT023 BKN027 16/14 Q1005 TEMPO 7000 -SHRA SCT018CB
 
EHGR - Gilze-Rijen Rnla, Netherlands
Distance from station: Z 57km
Updated: 31/07/2021 08:45
Lichte regen, Meestal bewolkt
Lichte regen, Meestal bewolkt
 Wind van ZW
Wind: ZW 17 km/h
Temperatuur: 15°C
Dauwpunt: 14°C
Vochtigheid: 94%
Barometer: 1006 hPa
Overzicht: Lichte regen
Clouds: Meestal bewolkt
Visibility: 10 km
Cloud details: Few Clouds 335 m
Gedeeltelijk bewolkt 427 m
Meestal bewolkt 610 m
2021/07/31 06:45 EHGR 310645Z AUTO 23009KT 200V270 9999 -RA FEW011 SCT014 BKN020 15/14 Q1006 GRN
EHDL - Deelen Rnlafb, Netherlands
Distance from station: O 71km
Updated: 31/07/2021 08:25
Meestal bewolkt
Meestal bewolkt
 Wind van ZW
Wind: ZW 20 km/h
Temperatuur: 15°C
Dauwpunt: 14°C
Vochtigheid: 94%
Barometer: 1004 hPa
Clouds: Meestal bewolkt
Visibility: 10 km
Cloud details: Few Clouds 244 m
Gedeeltelijk bewolkt 366 m
Meestal bewolkt 457 m
2021/07/31 06:25 EHDL 310625Z AUTO 22011KT 150V270 9999 FEW008 SCT012 BKN015CB 15/14 Q1004 GRN
 
EHVK - Volkel Rnlafb, Netherlands
Distance from station: ZO 77km
Updated: 31/07/2021 08:45
Heavy drizzle, Meestal bewolkt
Heavy drizzle, Meestal bewolkt
 Wind van ZW
Wind: ZW 28 km/h
Temperatuur: 15°C
Dauwpunt: 14°C
Vochtigheid: 94%
Barometer: 1006 hPa
Overzicht: Heavy Drizzle
Clouds: Meestal bewolkt
Visibility: 6 km
Cloud details: Few Clouds 213 m
Meestal bewolkt 457 m
Meestal bewolkt 579 m
2021/07/31 06:45 EHVK 310645Z AUTO 22015KT 6000 +DZ FEW007 BKN015 BKN019 15/14 Q1006 WHT
EHWO - Woensdrecht Rnla, Netherlands
Distance from station: ZZW 78km
Updated: 31/07/2021 08:46
Zwaar bewolkt
Zwaar bewolkt
 Wind van ZW
Wind: ZW 20 km/h
Temperatuur: 15°C
Dauwpunt: 14°C
Vochtigheid: 94%
Barometer: 1006 hPa
Clouds: Zwaar bewolkt
Visibility: 10 km
Cloud details: Few Clouds 366 m
Meestal bewolkt 457 m
Zwaar bewolkt 549 m
2021/07/31 06:46 EHWO 310646Z AUTO 23011KT 200V260 9999 FEW012 BKN015 OVC018 15/14 Q1006 WHT
 
EHEH - Eindhoven Rnlafb, Netherlands
Distance from station: ZZO 81km
Updated: 31/07/2021 08:25
Zwaar bewolkt
Zwaar bewolkt
 Wind van ZW
Wind: ZW 28 km/h
Temperatuur: 16°C
Dauwpunt: 13°C
Vochtigheid: 83%
Barometer: 1006 hPa
Clouds: Zwaar bewolkt
Visibility: 10 km
Cloud details: Gedeeltelijk bewolkt 488 m
Meestal bewolkt 610 m
Zwaar bewolkt 701 m
2021/07/31 06:25 EHEH 310625Z AUTO 22015KT 190V270 9999 SCT016 BKN020 OVC023 16/13 Q1006 WHT TEMPO 24015G25KT 4000 -RA -SHRA FEW010 SCT014 FEW018CB BKN020
EHSC - Goeree Le Sea, Netherlands
Distance from station: W 81km
Updated: 31/07/2021 08:25
Lichte regen
Lichte regen
 Wind van W
Wind: W 56 km/h
Temperatuur: 16°C
Dauwpunt: 14°C
Vochtigheid: 88%
Barometer: 1005 hPa
Overzicht: Lichte regen
Visibility: 10 km
2021/07/31 06:25 EHSC 310625Z AUTO 27030KT 9999 -RA ///////// 16/14 Q1005 W18/H22